sim
Sign-in with your pilot id or email,
or register
Callsign
Passwort

Schedule Details

Flight Number: DLH2484
Departure: Munich Airport (EDDM) at 20:50
Arrival: London Heathrow Airport (EGLL) at 22:55
Route: Lufthansa Passenger Schedule. Enter filed route here before submitting Pirep.

Weather Information
Getting current METAR information for EDDM 240520Z VRB01KT CAVOK 09/09 Q1009 NOSIG
Getting current METAR information for EGLL 240520Z AUTO 15009KT 9999 -RA SCT037/// OVC047/// //////CB 10/09 Q0996 TEMPO SHRA

Schedule Frequency

Route Map